AIRPORT METAR

METAR FOR LIRA
ADDS - METARS form results

(0703 UTC 27 February 2021)
Data provider http://aviationweather.gov/metar/data/
 
METAR text: LIRA 270650Z VRB02KT 1100 R15/P1500N BR OVC003 08/08 Q1024
Conditions at: LIRA (CIAMPINO(IT-AFB/, IT) observed 0650 UTC 27 February 2021
Temperature: 8.0°C (46°F)
Dewpoint: 8.0°C (46°F) [RH = 100%]
Pressure (altimeter): 30.24 inches Hg (1024.0 mb)
Winds: variable direction winds at 2 MPH (2 knots; 1.0 m/s)
Visibility: 0.68 miles (1.09 km)
Ceiling: 300 feet AGL
Clouds: overcast cloud deck at 300 feet AGL
Weather: BR  (mist)

METAR text: LIRA 270620Z VRB02KT 0400 R15/1200N FG OVC002 08/07 Q1023
Conditions at: LIRA (CIAMPINO(IT-AFB/, IT) observed 0620 UTC 27 February 2021
Temperature: 8.0°C (46°F)
Dewpoint: 7.0°C (45°F) [RH = 93%]
Pressure (altimeter): 30.21 inches Hg (1023.0 mb)
Winds: variable direction winds at 2 MPH (2 knots; 1.0 m/s)
Visibility: 0.25 miles (0.40 km)
Ceiling: 200 feet AGL
Clouds: overcast cloud deck at 200 feet AGL
Weather: FG  (fog)

Forecast for: LIRA (CIAMPINO(IT-AFB/, IT)
Text: TAF LIRA 270500Z 2706/2806 VRB04KT 0500 FG OVC004
Forecast period: 0600 to 0900 UTC 27 February 2021
Forecast type: FROM: standard forecast or significant change
Winds: variable direction winds at 5 MPH (4 knots; 2.1 m/s)
Visibility: 0.31 miles (0.50 km)
Ceiling: 400 feet AGL
Clouds: overcast cloud deck at 400 feet AGL
Weather: FG  (fog)
Text: BECMG 2709/2711 8000
Forecast period: 0900 UTC 27 February 2021 to 0600 UTC 28 February 2021
Forecast type: BECOMING: Conditions expected to become as follows by 1100 UTC 27 February 2021
Winds: variable direction winds at 5 MPH (4 knots; 2.1 m/s)
Visibility: 5 miles (8 km)
Ceiling: 400 feet AGL
Clouds: overcast cloud deck at 400 feet AGL
Weather: FG  (fog)

AIRPORT MAP

 RUNWAY INFORMATION
Runway 15 Runway length 7242 ft Runway width 154 ft
Runway elevation 341 ft Runway displaced threshold 0 ft Runway heading 153
Runway 33 Runway length 7242 ft Runway width 154 ft
Runway elevation 427 ft Runway displaced threshold 0 ft Runway heading 333

 AIRPORT FREQUENCIES
Type ARR Name ROMA ARR Frequency 119.2 MHZ
Type CLD Name CLNC DEL Frequency 119.4 MHZ
Type DIR Name ROMA DIREC Frequency 119.2 MHZ
Type GND Name GND Frequency 121.75 MHZ
Type TWR Name TWR Frequency 120.5 MHZ

 AIRPORT NEAR NAVIGATION AIDS
Type NDB Name Ciampino Frequency 412 KHZ
Type VOR-DME Name Roma Frequency 110800 KHZ



© 2020 - Royal Sky Service, All Right Reserved.